Time;durP1;ratioP1;P1;durP2;ratioP2;P2;SDS_P1;SDS_P2;PMS_P1;PMS_P2;Temp;Humidity;BMP_temperature;BMP_pressure;BME280_temperature;BME280_humidity;BME280_pressure;Samples;Min_cycle;Max_cycle;Signal;HPM_P1;HPM_P2
2022/05/16 00:02:08;;;;;;;44.72;18.63;;;;;;;15.10;67.62;95328.53;5011811;28;20104;-77
2022/05/16 00:04:39;;;;;;;41.92;18.75;;;;;;;15.08;67.48;95327.19;5010419;28;20045;-77
2022/05/16 00:07:04;;;;;;;41.13;19.38;;;;;;;15.04;67.47;95328.72;4978305;28;20100;-77
2022/05/16 00:09:30;;;;;;;47.90;19.40;;;;;;;15.02;67.53;95321.91;5002119;28;20116;-77
2022/05/16 00:11:55;;;;;;;48.42;17.75;;;;;;;15.00;67.48;95318.75;5002172;28;20035;-76
2022/05/16 00:14:20;;;;;;;33.97;17.95;;;;;;;14.96;67.77;95320.25;4985845;28;20045;-76
2022/05/16 00:16:46;;;;;;;46.95;20.08;;;;;;;14.92;68.05;95316.56;5048869;23;20513;-76
2022/05/16 00:19:11;;;;;;;38.95;18.38;;;;;;;14.91;67.96;95319.41;5040753;28;20567;-76
2022/05/16 00:21:37;;;;;;;34.50;17.67;;;;;;;14.87;68.11;95321.75;5039257;28;20033;-77
2022/05/16 00:24:02;;;;;;;35.40;16.55;;;;;;;14.86;68.11;95320.16;5039278;28;20148;-77
2022/05/16 00:26:28;;;;;;;31.15;16.70;;;;;;;14.84;68.02;95317.00;5039639;28;20090;-77
2022/05/16 00:28:53;;;;;;;31.50;16.58;;;;;;;14.81;68.04;95320.13;5039851;28;20047;-77
2022/05/16 00:31:19;;;;;;;25.55;15.85;;;;;;;14.79;68.12;95314.31;5040169;28;20037;-77
2022/05/16 00:33:44;;;;;;;26.92;13.95;;;;;;;14.77;68.35;95313.78;5047773;28;20032;-77
2022/05/16 00:36:09;;;;;;;22.65;13.60;;;;;;;14.76;68.21;95317.44;5006072;28;20053;-77
2022/05/16 00:38:35;;;;;;;25.48;13.85;;;;;;;14.76;68.46;95317.44;5023252;28;20127;-77
2022/05/16 00:41:06;;;;;;;28.95;14.57;;;;;;;14.76;68.69;95312.19;5047811;28;20041;-77
2022/05/16 00:43:53;;;;;;;27.30;16.00;;;;;;;14.72;68.61;95316.34;5037822;28;20079;-77
2022/05/16 00:46:19;;;;;;;26.13;15.52;;;;;;;14.70;68.83;95313.97;5040924;28;20067;-77
2022/05/16 00:48:44;;;;;;;27.42;15.02;;;;;;;14.67;68.97;95318.91;5041571;28;20037;-77
2022/05/16 00:51:13;;;;;;;23.38;15.25;;;;;;;14.66;68.51;95317.34;5023322;28;20433;-77
2022/05/16 00:53:38;;;;;;;25.63;14.35;;;;;;;14.64;68.63;95314.13;5047967;28;20075;-77
2022/05/16 00:56:04;;;;;;;29.40;15.10;;;;;;;14.68;68.32;95308.19;5040306;28;20109;-77
2022/05/16 01:01:01;;;;;;;29.23;14.48;;;;;;;14.68;68.19;95317.88;5034990;28;20053;-77
2022/05/16 01:06:11;;;;;;;27.05;13.25;;;;;;;14.65;68.77;95305.28;5007026;28;20149;-77
2022/05/16 01:08:39;;;;;;;20.63;13.25;;;;;;;14.66;68.79;95317.34;4991874;28;20525;-77
2022/05/16 01:11:09;;;;;;;18.33;13.80;;;;;;;14.69;68.24;95307.16;4984372;28;20069;-78
2022/05/16 01:13:35;;;;;;;18.63;12.25;;;;;;;14.69;67.84;95311.59;4991382;28;20065;-77
2022/05/16 01:16:01;;;;;;;20.10;13.32;;;;;;;14.64;68.32;95303.66;5000175;28;20048;-77
2022/05/16 01:18:26;;;;;;;15.50;12.35;;;;;;;14.62;68.27;95308.38;5008646;28;20513;-78
2022/05/16 01:21:00;;;;;;;29.45;13.85;;;;;;;14.59;68.31;95314.88;5008167;28;20044;-78
2022/05/16 01:23:27;;;;;;;25.10;14.27;;;;;;;14.54;68.48;95308.81;5044066;28;20093;-77
2022/05/16 01:25:52;;;;;;;34.47;15.82;;;;;;;14.50;68.01;95310.34;5006868;28;20038;-78
2022/05/16 01:28:20;;;;;;;33.03;14.82;;;;;;;14.49;68.16;95311.38;5028727;28;20483;-77
2022/05/16 01:30:47;;;;;;;24.42;14.55;;;;;;;14.44;68.17;95308.69;4984413;28;20038;-77
2022/05/16 01:33:14;;;;;;;25.42;14.38;;;;;;;14.41;67.93;95310.72;5001119;28;20072;-77
2022/05/16 01:35:40;;;;;;;28.83;13.75;;;;;;;14.34;67.62;95304.88;4983383;28;20061;-77
2022/05/16 01:38:26;;;;;;;21.63;13.65;;;;;;;14.32;67.79;95312.19;5000239;28;20425;-77
2022/05/16 01:40:53;;;;;;;19.67;11.68;;;;;;;14.29;69.44;95312.66;5000727;28;20566;-77
2022/05/16 01:43:20;;;;;;;18.13;12.40;;;;;;;14.28;70.43;95318.91;5023173;28;20152;-78
2022/05/16 01:45:46;;;;;;;14.82;10.88;;;;;;;14.31;70.30;95310.56;5007639;28;20145;-77
2022/05/16 01:48:12;;;;;;;13.32;11.13;;;;;;;14.35;69.68;95311.69;4967148;28;20475;-77
2022/05/16 01:50:41;;;;;;;17.13;11.68;;;;;;;14.36;68.79;95313.28;4991658;28;20057;-77
2022/05/16 01:53:07;;;;;;;11.55;10.10;;;;;;;14.37;69.18;95317.47;5001771;28;20044;-77
2022/05/16 01:55:32;;;;;;;23.75;11.32;;;;;;;14.38;69.18;95324.28;5013058;28;20034;-77
2022/05/16 01:57:58;;;;;;;24.65;11.55;;;;;;;14.37;68.84;95317.47;5011503;28;20034;-77
2022/05/16 02:00:23;;;;;;;22.13;13.70;;;;;;;14.39;68.48;95323.25;5000466;28;20093;-78
2022/05/16 02:02:49;;;;;;;23.17;15.13;;;;;;;14.35;68.36;95322.16;4999957;28;20026;-77
2022/05/16 02:05:16;;;;;;;26.55;14.70;;;;;;;14.31;68.23;95322.88;5001165;28;20049;-78
2022/05/16 02:07:42;;;;;;;36.00;15.45;;;;;;;14.31;67.83;95325.47;5024954;28;20041;-78
2022/05/16 02:10:08;;;;;;;39.85;15.05;;;;;;;14.31;67.79;95326.28;4992590;28;20104;-77
2022/05/16 02:12:34;;;;;;;25.60;14.25;;;;;;;14.28;67.61;95316.31;5000500;28;20021;-77
2022/05/16 02:14:59;;;;;;;28.45;14.18;;;;;;;14.26;67.49;95318.38;4999537;28;20041;-77
2022/05/16 02:17:25;;;;;;;27.77;14.57;;;;;;;14.25;67.73;95321.22;4999604;28;20045;-77
2022/05/16 02:19:50;;;;;;;24.88;14.57;;;;;;;14.22;67.86;95325.13;4998027;28;20042;-76
2022/05/16 02:25:00;;;;;;;44.08;19.17;;;;;;;14.11;68.00;95318.16;4999723;28;20482;-77
2022/05/16 02:27:25;;;;;;;35.90;18.00;;;;;;;14.09;67.83;95321.03;5023146;28;20490;-77
2022/05/16 02:29:51;;;;;;;42.22;16.83;;;;;;;14.07;68.07;95317.06;4997286;28;20033;-77
2022/05/16 02:32:16;;;;;;;37.85;17.63;;;;;;;14.05;68.33;95322.53;5002236;28;20042;-77
2022/05/16 02:34:44;;;;;;;35.95;16.40;;;;;;;14.05;68.21;95321.75;5006088;28;20042;-77
2022/05/16 02:37:10;;;;;;;43.17;17.08;;;;;;;14.05;68.04;95316.53;5000590;28;20450;-77
2022/05/16 02:39:35;;;;;;;36.03;16.63;;;;;;;13.98;68.33;95321.13;4997732;28;20076;-77
2022/05/16 02:42:01;;;;;;;31.00;16.23;;;;;;;13.95;68.12;95317.16;4999438;28;20038;-76
2022/05/16 02:44:26;;;;;;;38.90;15.20;;;;;;;13.92;68.69;95316.84;5022675;28;20050;-77
2022/05/16 02:46:52;;;;;;;35.47;14.93;;;;;;;13.92;68.63;95309.81;4990215;28;20025;-76
2022/05/16 02:49:17;;;;;;;50.53;15.75;;;;;;;13.91;68.70;95313.44;5002574;28;20505;-77
2022/05/16 02:51:42;;;;;;;38.05;17.20;;;;;;;13.85;68.75;95313.63;5001338;28;20495;-77
2022/05/16 02:54:08;;;;;;;65.13;31.83;;;;;;;13.85;68.62;95317.03;5002771;28;20037;-75
2022/05/16 02:56:34;;;;;;;57.60;35.22;;;;;;;13.80;68.83;95315.13;5002424;28;20053;-76
2022/05/16 02:58:59;;;;;;;63.85;41.42;;;;;;;13.77;68.44;95310.38;5002713;28;20504;-76
2022/05/16 03:01:25;;;;;;;83.00;48.08;;;;;;;13.79;68.22;95317.97;4985057;28;20038;-77
2022/05/16 03:03:50;;;;;;;81.68;54.05;;;;;;;13.75;68.29;95324.72;5001812;28;20061;-76
2022/05/16 03:06:16;;;;;;;68.90;38.40;;;;;;;13.78;67.88;95325.03;5009778;28;20038;-76
2022/05/16 03:08:41;;;;;;;57.13;33.05;;;;;;;13.74;68.37;95320.50;5002860;28;20034;-76
2022/05/16 03:11:07;;;;;;;73.47;30.27;;;;;;;13.76;68.39;95323.69;5002396;28;20034;-77
2022/05/16 03:13:32;;;;;;;57.70;29.23;;;;;;;13.76;68.22;95329.69;5003525;28;20043;-77
2022/05/16 03:15:58;;;;;;;55.35;30.00;;;;;;;13.77;67.68;95331.28;5030753;22;20038;-77
2022/05/16 03:18:24;;;;;;;37.97;22.48;;;;;;;13.76;67.95;95334.94;5003239;28;20038;-77
2022/05/16 03:20:51;;;;;;;36.78;15.52;;;;;;;13.77;67.98;95327.88;5001303;28;20489;-76
2022/05/16 03:23:16;;;;;;;38.67;17.67;;;;;;;13.78;67.79;95332.88;5001213;28;20201;-77
2022/05/16 03:25:42;;;;;;;37.63;17.02;;;;;;;13.77;67.91;95333.91;5002568;28;20438;-77
2022/05/16 03:28:07;;;;;;;39.47;18.60;;;;;;;13.81;67.21;95335.00;5003964;28;20490;-79
2022/05/16 03:30:32;;;;;;;34.63;16.08;;;;;;;13.80;67.62;95341.25;5021614;28;20069;-77
2022/05/16 03:32:58;;;;;;;19.92;12.18;;;;;;;13.91;67.28;95342.22;5015295;28;20038;-77
2022/05/16 03:35:24;;;;;;;16.48;9.57;;;;;;;14.01;67.11;95349.41;5001324;28;20026;-76
2022/05/16 03:37:49;;;;;;;16.83;10.00;;;;;;;14.12;66.63;95353.75;5001897;28;20117;-76
2022/05/16 03:42:59;;;;;;;32.67;11.70;;;;;;;14.27;66.21;95356.56;5070811;22;20099;-76
2022/05/16 03:45:24;;;;;;;14.02;9.48;;;;;;;14.38;66.23;95360.91;5003905;28;20494;-76
2022/05/16 03:47:50;;;;;;;25.08;9.95;;;;;;;14.53;65.22;95360.34;5011568;28;20026;-76
2022/05/16 03:50:15;;;;;;;20.70;9.63;;;;;;;14.67;64.76;95360.78;5011184;28;20034;-75
2022/05/16 03:52:41;;;;;;;21.55;10.32;;;;;;;14.79;64.90;95364.06;4978734;28;20148;-75
2022/05/16 03:55:09;;;;;;;31.55;11.45;;;;;;;14.89;64.34;95369.41;5000307;28;20030;-75
2022/05/16 03:57:34;;;;;;;25.27;9.23;;;;;;;14.99;63.91;95371.38;5003324;28;20053;-76
2022/05/16 04:00:00;;;;;;;13.18;9.27;;;;;;;15.11;63.62;95371.22;5014324;28;20076;-77
2022/05/16 04:02:25;;;;;;;20.40;10.15;;;;;;;15.55;63.34;95377.94;4998607;28;20120;-76
2022/05/16 04:04:50;;;;;;;19.85;9.05;;;;;;;17.35;58.02;95369.00;5010803;28;20030;-75
2022/05/16 04:07:16;;;;;;;17.55;8.65;;;;;;;19.35;52.14;95378.94;5011583;28;20064;-76
2022/05/16 04:09:41;;;;;;;19.83;7.63;;;;;;;21.19;46.54;95372.81;5010179;28;20034;-75
2022/05/16 04:12:07;;;;;;;13.77;6.65;;;;;;;22.87;42.28;95378.09;5010192;28;20038;-76
2022/05/16 04:14:33;;;;;;;10.10;6.70;;;;;;;24.21;39.12;95384.41;4977881;28;20041;-77
2022/05/16 04:16:58;;;;;;;23.23;7.10;;;;;;;25.62;36.33;95377.41;4977726;28;20066;-76
2022/05/16 04:19:25;;;;;;;19.60;6.88;;;;;;;26.82;33.90;95376.44;4993659;28;20421;-76
2022/05/16 04:21:50;;;;;;;15.90;6.25;;;;;;;27.93;32.17;95376.06;5009455;28;20088;-76
2022/05/16 04:24:15;;;;;;;15.32;6.15;;;;;;;29.15;29.78;95370.97;5009813;28;20022;-77
2022/05/16 04:26:42;;;;;;;8.52;5.70;;;;;;;29.88;28.26;95370.03;5011320;28;20065;-77
2022/05/16 04:29:07;;;;;;;13.00;5.10;;;;;;;30.97;26.94;95376.72;5009525;28;20606;-74
2022/05/16 04:31:33;;;;;;;19.05;5.47;;;;;;;31.86;25.11;95377.94;5011179;28;20034;-75
2022/05/16 04:33:58;;;;;;;14.02;5.40;;;;;;;32.33;24.93;95375.00;4977374;28;20522;-77
2022/05/16 04:36:26;;;;;;;19.98;5.30;;;;;;;33.45;23.51;95372.97;5010226;28;20064;-81
2022/05/16 04:38:54;;;;;;;22.67;6.05;;;;;;;33.84;22.39;95381.56;5010143;28;20057;-78
2022/05/16 04:44:04;;;;;;;20.77;4.40;;;;;;;35.45;20.67;95381.97;5011077;28;20061;-73
2022/05/16 04:46:31;;;;;;;13.88;5.03;;;;;;;35.61;20.15;95377.03;5010940;28;20061;-76
2022/05/16 04:48:58;;;;;;;19.38;4.70;;;;;;;36.71;19.54;95381.28;5009253;28;20062;-76
2022/05/16 04:51:23;;;;;;;26.80;5.20;;;;;;;37.64;18.42;95384.72;5009665;28;20042;-75
2022/05/16 04:53:49;;;;;;;9.23;4.53;;;;;;;38.02;17.76;95383.81;5010212;28;20452;-76
2022/05/16 04:56:14;;;;;;;9.48;4.55;;;;;;;38.53;17.56;95387.84;5010724;28;20053;-76
2022/05/16 04:58:39;;;;;;;18.85;5.00;;;;;;;38.68;17.19;95392.03;5008783;28;20022;-74
2022/05/16 05:01:05;;;;;;;16.52;4.20;;;;;;;39.00;16.91;95385.59;4986074;28;20034;-73
2022/05/16 05:03:30;;;;;;;13.25;4.80;;;;;;;39.67;16.29;95389.66;5008903;28;20040;-74
2022/05/16 05:05:56;;;;;;;15.27;4.13;;;;;;;40.11;15.82;95396.16;5002298;28;20036;-74
2022/05/16 05:08:22;;;;;;;13.63;4.10;;;;;;;40.56;15.65;95383.13;4990753;28;20525;-75
2022/05/16 05:16:17;;;;;;;4.65;3.55;;;;;;;42.36;13.88;95402.16;5009616;28;20998;-75
2022/05/16 05:18:43;;;;;;;9.25;3.97;;;;;;;42.77;13.57;95401.63;5007797;28;20535;-76
2022/05/16 05:21:09;;;;;;;5.32;3.22;;;;;;;43.23;13.20;95399.00;5010223;28;20034;-75
2022/05/16 05:23:34;;;;;;;12.93;4.45;;;;;;;43.61;12.48;95399.19;5009420;28;20105;-76
2022/05/16 05:26:01;;;;;;;9.13;3.83;;;;;;;43.72;12.65;95402.44;4984982;28;20034;-86
2022/05/16 05:28:27;;;;;;;7.63;3.90;;;;;;;43.42;12.82;95401.66;4992631;28;20124;-87
2022/05/16 05:30:52;;;;;;;11.13;3.63;;;;;;;43.16;12.87;95399.97;4977515;28;20117;-86
2022/05/16 05:33:18;;;;;;;10.57;3.92;;;;;;;43.30;13.01;95407.06;4994347;28;20366;-87
2022/05/16 05:35:43;;;;;;;5.28;4.05;;;;;;;43.53;12.83;95408.81;4977500;28;20403;-87
2022/05/16 05:38:09;;;;;;;7.93;3.78;;;;;;;44.09;12.47;95401.03;5010165;28;20046;-87
2022/05/16 05:40:37;;;;;;;6.28;3.60;;;;;;;44.42;12.59;95403.59;4992640;28;20034;-88
2022/05/16 05:43:06;;;;;;;7.53;4.13;;;;;;;44.95;12.09;95406.72;4977812;28;20449;-87
2022/05/16 05:45:32;;;;;;;12.50;3.90;;;;;;;45.32;11.75;95402.38;4993302;28;20032;-87
2022/05/16 05:47:57;;;;;;;9.40;3.78;;;;;;;45.66;11.64;95399.63;4992863;28;20049;-88
2022/05/16 05:50:24;;;;;;;9.18;4.00;;;;;;;45.91;11.02;95407.00;4993146;28;20026;-88
2022/05/16 05:52:49;;;;;;;12.05;3.88;;;;;;;45.88;11.24;95401.59;5009684;28;20037;-87
2022/05/16 05:55:15;;;;;;;14.32;4.43;;;;;;;45.77;11.04;95394.53;4976813;28;20052;-87
2022/05/16 05:57:47;;;;;;;14.60;4.00;;;;;;;45.85;11.21;95399.75;4993856;28;20041;-87
2022/05/16 06:00:13;;;;;;;8.75;3.70;;;;;;;46.10;10.86;95393.41;4994090;28;20026;-87
2022/05/16 06:02:40;;;;;;;12.90;4.45;;;;;;;46.29;10.77;95403.28;5005489;28;20042;-87
2022/05/16 06:05:17;;;;;;;9.38;3.92;;;;;;;46.14;10.92;95403.03;5013134;28;20049;-88
2022/05/16 06:07:42;;;;;;;18.25;4.00;;;;;;;45.82;11.12;95406.94;4985885;28;20061;-88
2022/05/16 06:10:08;;;;;;;8.60;4.40;;;;;;;44.82;11.97;95401.22;4994910;28;20046;-87
2022/05/16 06:12:34;;;;;;;10.07;4.57;;;;;;;44.75;11.78;95399.47;4983747;28;20712;-87
2022/05/16 06:14:59;;;;;;;6.32;3.97;;;;;;;44.90;11.90;95394.31;5010853;28;20041;-87
2022/05/16 06:17:25;;;;;;;9.63;4.40;;;;;;;44.35;12.38;95390.88;4968200;28;20057;-87
2022/05/16 06:19:51;;;;;;;10.25;4.82;;;;;;;43.98;12.48;95393.13;5016433;28;20618;-87
2022/05/16 06:22:17;;;;;;;10.20;5.78;;;;;;;43.00;13.46;95380.81;5003761;28;20041;-87
2022/05/16 06:27:31;;;;;;;11.48;5.68;;;;;;;43.37;13.55;95391.22;5033926;28;20056;-85
2022/05/16 06:29:57;;;;;;;21.83;5.63;;;;;;;41.92;14.24;95397.97;5024907;28;20040;-84
2022/05/16 06:32:22;;;;;;;12.90;5.85;;;;;;;41.90;14.14;95394.91;5020144;28;20038;-86
2022/05/16 06:34:48;;;;;;;12.77;6.10;;;;;;;41.17;15.03;95395.81;5019134;28;20022;-86
2022/05/16 06:37:14;;;;;;;11.27;5.55;;;;;;;40.73;15.15;95401.16;4997722;28;20122;-86
2022/05/16 06:39:40;;;;;;;16.75;6.20;;;;;;;41.01;14.60;95396.47;4992602;28;20033;-86
2022/05/16 06:42:06;;;;;;;12.93;5.70;;;;;;;40.54;14.47;95393.66;5012737;28;20497;-86
2022/05/16 06:44:31;;;;;;;19.35;6.57;;;;;;;39.55;15.93;95390.19;5010839;28;20088;-86
2022/05/16 06:46:56;;;;;;;11.30;5.45;;;;;;;38.79;16.47;95386.53;5007253;28;20041;-85
2022/05/16 06:49:22;;;;;;;20.27;5.75;;;;;;;38.03;17.65;95393.53;4977586;28;20033;-85
2022/05/16 06:51:48;;;;;;;19.50;6.30;;;;;;;37.66;17.94;95388.59;5010323;28;20045;-85
2022/05/16 06:54:13;;;;;;;14.45;5.50;;;;;;;37.44;18.04;95390.59;4993990;28;20038;-86
2022/05/16 06:56:39;;;;;;;22.95;6.30;;;;;;;37.07;18.26;95391.00;5007001;28;20053;-85
2022/05/16 06:59:04;;;;;;;16.55;5.10;;;;;;;36.50;19.21;95393.66;4988893;28;20030;-86
2022/05/16 07:01:30;;;;;;;17.13;5.60;;;;;;;36.20;19.00;95388.53;5009714;28;20030;-86
2022/05/16 07:03:55;;;;;;;21.67;5.68;;;;;;;35.49;19.67;95385.50;5012275;28;20109;-85
2022/05/16 07:06:21;;;;;;;14.57;5.70;;;;;;;35.01;20.13;95390.16;4994406;28;20072;-86
2022/05/16 07:08:46;;;;;;;22.98;5.90;;;;;;;34.60;20.42;95387.47;5012130;28;20409;-86
2022/05/16 07:11:12;;;;;;;16.05;6.10;;;;;;;34.08;21.00;95388.44;5014307;28;20026;-84
2022/05/16 07:13:37;;;;;;;18.27;6.40;;;;;;;33.70;21.71;95380.28;5010684;28;20061;-76
2022/05/16 07:16:03;;;;;;;20.40;6.00;;;;;;;33.40;22.82;95388.34;5009172;28;20041;-77
2022/05/16 07:18:29;;;;;;;24.85;6.55;;;;;;;33.02;22.06;95377.72;5011194;28;20045;-78
2022/05/16 07:20:55;;;;;;;24.95;6.38;;;;;;;32.38;23.64;95387.38;4979967;28;20065;-83
2022/05/16 07:23:21;;;;;;;16.52;6.50;;;;;;;32.18;23.77;95392.78;5013034;28;20057;-84
2022/05/16 07:28:30;;;;;;;18.63;8.00;;;;;;;31.73;24.77;95379.19;5021825;28;20052;-83
2022/05/16 07:30:57;;;;;;;13.98;6.50;;;;;;;31.00;25.48;95370.66;4986211;28;20034;-86
2022/05/16 07:33:23;;;;;;;12.75;6.10;;;;;;;30.86;25.86;95375.69;4978271;28;20026;-85
2022/05/16 07:35:50;;;;;;;11.85;6.05;;;;;;;30.72;25.96;95373.44;4981866;28;20562;-87
2022/05/16 07:38:19;;;;;;;14.43;6.40;;;;;;;30.14;26.33;95377.69;5001080;28;20068;-86
2022/05/16 07:40:44;;;;;;;14.05;6.53;;;;;;;29.78;26.93;95371.31;4997504;28;20489;-86
2022/05/16 07:43:10;;;;;;;15.30;6.13;;;;;;;29.65;27.51;95375.16;5014582;28;20084;-86
2022/05/16 07:45:35;;;;;;;22.05;5.80;;;;;;;29.71;27.81;95365.75;4983456;28;20073;-85
2022/05/16 07:48:03;;;;;;;15.00;5.65;;;;;;;29.70;27.43;95377.59;4999569;28;20500;-85
2022/05/16 07:50:29;;;;;;;14.43;5.90;;;;;;;29.62;26.92;95367.03;4982587;28;20044;-85
2022/05/16 07:52:55;;;;;;;15.45;6.28;;;;;;;29.42;27.11;95374.03;4996365;28;20045;-85
2022/05/16 07:55:23;;;;;;;10.30;5.07;;;;;;;29.26;27.25;95377.41;5028512;28;20026;-85
2022/05/16 07:57:49;;;;;;;11.95;4.97;;;;;;;29.21;26.77;95374.97;4996515;28;20042;-85
2022/05/16 08:00:15;;;;;;;15.20;5.15;;;;;;;29.28;27.09;95380.53;4997514;28;20513;-85
2022/05/16 08:02:41;;;;;;;12.38;5.70;;;;;;;29.15;26.87;95368.28;5000646;28;20064;-85
2022/05/16 08:05:14;;;;;;;27.83;5.60;;;;;;;28.92;27.53;95377.88;5015172;28;20434;-86
2022/05/16 08:10:30;;;;;;;14.15;5.10;;;;;;;28.78;27.39;95370.16;5015048;28;20104;-85
2022/05/16 08:13:07;;;;;;;20.58;5.40;;;;;;;28.77;28.46;95365.91;4983353;28;20042;-85
2022/05/16 08:15:33;;;;;;;15.98;4.78;;;;;;;28.58;28.18;95366.47;5002281;28;20061;-86
2022/05/16 08:17:59;;;;;;;11.20;4.57;;;;;;;28.51;26.95;95366.25;4990382;28;20049;-86
2022/05/16 08:20:25;;;;;;;14.00;4.88;;;;;;;28.44;28.29;95357.19;5033027;23;20037;-86
2022/05/16 08:22:51;;;;;;;7.70;3.58;;;;;;;28.45;26.59;95359.53;5040796;28;20042;-85
2022/05/16 08:25:17;;;;;;;18.17;3.22;;;;;;;28.44;26.11;95363.31;5004350;28;20041;-86
2022/05/16 08:27:42;;;;;;;10.10;3.22;;;;;;;28.36;25.62;95369.56;5037180;28;20034;-86
2022/05/16 08:30:09;;;;;;;9.38;3.38;;;;;;;28.27;26.10;95358.16;4995275;28;20037;-86
2022/05/16 08:32:34;;;;;;;4.28;2.83;;;;;;;28.18;25.13;95365.47;5018162;28;20102;-86
2022/05/16 08:35:02;;;;;;;8.27;3.25;;;;;;;28.02;25.04;95366.09;5032344;28;20062;-85
2022/05/16 08:40:03;;;;;;;9.23;3.03;;;;;;;27.88;25.67;95357.56;5034325;23;20429;-85
2022/05/16 08:42:50;;;;;;;4.72;2.35;;;;;;;27.83;25.06;95349.75;5020709;28;20080;-85
2022/05/16 08:45:35;;;;;;;13.68;3.10;;;;;;;27.85;24.76;95358.22;5029316;28;20029;-87
2022/05/16 08:48:24;;;;;;;7.90;2.80;;;;;;;27.74;24.40;95343.69;5017395;28;20509;-86
2022/05/16 08:50:52;;;;;;;2.83;1.92;;;;;;;27.60;23.02;95351.94;5016724;28;20021;-85
2022/05/16 08:53:49;;;;;;;11.00;2.17;;;;;;;27.16;23.05;95342.66;5009725;28;20493;-86
2022/05/16 08:56:19;;;;;;;10.30;2.47;;;;;;;27.10;25.10;95355.44;5025301;28;20061;-85
2022/05/16 08:59:03;;;;;;;22.42;3.30;;;;;;;27.21;26.23;95353.19;5025604;28;20041;-86
2022/05/16 09:01:34;;;;;;;3.65;2.30;;;;;;;27.20;24.84;95343.59;5038448;28;20023;-86
2022/05/16 09:04:00;;;;;;;6.13;2.35;;;;;;;27.21;24.08;95345.16;5007050;28;20092;-85
2022/05/16 09:06:30;;;;;;;12.07;2.80;;;;;;;27.25;25.97;95354.09;5016854;28;20037;-85
2022/05/16 09:09:14;;;;;;;3.33;2.35;;;;;;;27.18;23.17;95335.94;5006667;28;20045;-86
2022/05/16 09:12:21;;;;;;;13.07;2.50;;;;;;;27.06;21.97;95343.06;5017505;28;20037;-87
2022/05/16 09:15:11;;;;;;;7.25;2.35;;;;;;;26.87;24.15;95330.91;5012115;28;20025;-84
2022/05/16 09:17:59;;;;;;;4.32;2.28;;;;;;;26.76;23.60;95335.03;5023946;28;20044;-88
2022/05/16 09:20:33;;;;;;;3.65;2.00;;;;;;;26.66;24.02;95334.59;5008464;28;20066;-85
2022/05/16 09:23:26;;;;;;;9.55;2.10;;;;;;;26.75;24.63;95333.47;5024690;28;20122;-84
2022/05/16 09:26:00;;;;;;;11.55;2.47;;;;;;;26.76;24.50;95329.69;5006607;28;20095;-85
2022/05/16 09:28:34;;;;;;;6.78;1.70;;;;;;;26.74;20.40;95321.22;5016606;28;20036;-86
2022/05/16 09:31:13;;;;;;;5.03;2.00;;;;;;;26.79;20.77;95321.03;5005116;28;20033;-82
2022/05/16 09:33:48;;;;;;;11.02;2.08;;;;;;;26.83;20.30;95323.84;4998923;28;20497;-82
2022/05/16 09:36:15;;;;;;;5.28;2.22;;;;;;;26.92;23.21;95325.38;5028021;28;20034;-82
2022/05/16 09:38:43;;;;;;;2.70;1.88;;;;;;;26.90;20.23;95324.13;5010444;28;20040;-82
2022/05/16 09:41:21;;;;;;;3.55;2.10;;;;;;;26.83;21.38;95313.16;5039478;28;20029;-82
2022/05/16 09:44:04;;;;;;;5.15;1.63;;;;;;;26.75;21.37;95317.47;5031582;28;20038;-82
2022/05/16 09:46:34;;;;;;;4.88;2.08;;;;;;;26.66;21.80;95311.38;5028746;28;20033;-82
2022/05/16 09:49:02;;;;;;;3.38;1.67;;;;;;;26.52;21.53;95305.47;5019745;28;20052;-86
2022/05/16 09:51:30;;;;;;;5.45;1.67;;;;;;;26.47;23.08;95303.00;5028010;28;20052;-86
2022/05/16 09:53:59;;;;;;;5.30;2.00;;;;;;;26.45;22.48;95307.88;5007633;28;20072;-86
2022/05/16 10:00:31;;;;;;;7.40;1.70;;;;;;;26.26;22.80;95293.00;5022500;28;20045;-85
2022/05/16 10:03:20;;;;;;;13.60;2.15;;;;;;;26.19;22.97;95287.38;5021234;28;20830;-84
2022/05/16 10:06:02;;;;;;;9.60;1.90;;;;;;;26.23;22.98;95282.97;5016928;28;20057;-86
2022/05/16 10:08:47;;;;;;;6.30;1.92;;;;;;;26.32;23.09;95290.94;5010270;28;20045;-86
2022/05/16 10:11:16;;;;;;;2.67;2.20;;;;;;;26.17;22.43;95281.56;5019025;28;20052;-86
2022/05/16 10:13:42;;;;;;;3.55;1.90;;;;;;;25.97;22.39;95276.94;5035898;28;20040;-86
2022/05/16 10:16:08;;;;;;;12.43;2.42;;;;;;;25.96;21.73;95278.03;4996677;28;20030;-86
2022/05/16 10:18:39;;;;;;;7.75;2.10;;;;;;;25.90;23.82;95282.00;5003263;28;20033;-85
2022/05/16 10:21:06;;;;;;;12.82;2.03;;;;;;;25.75;23.40;95264.63;5025609;28;20037;-86
2022/05/16 10:23:38;;;;;;;4.80;1.92;;;;;;;25.77;23.53;95267.75;5026054;28;20041;-86
2022/05/16 10:26:06;;;;;;;;;;;;;;;25.78;23.24;95268.53;5000295;28;20029;-85
2022/05/16 10:28:37;;;;;;;8.75;2.22;;;;;;;25.71;24.14;95259.16;5028517;28;19921;-86
2022/05/16 10:33:55;;;;;;;7.95;1.90;;;;;;;25.79;23.96;95248.78;5011413;28;20117;-86
2022/05/16 10:36:28;;;;;;;11.55;2.65;;;;;;;25.84;24.88;95252.06;5014750;28;20050;-86
2022/05/16 10:39:04;;;;;;;7.60;1.92;;;;;;;25.81;25.43;95243.91;4992583;28;20034;-86
2022/05/16 10:41:53;;;;;;;14.43;2.20;;;;;;;25.81;25.02;95246.56;5007898;28;20049;-86
2022/05/16 10:44:36;;;;;;;6.85;1.98;;;;;;;25.81;24.55;95243.91;4995437;28;20091;-86
2022/05/16 10:47:14;;;;;;;8.77;2.15;;;;;;;25.85;24.53;95244.84;5031844;28;20048;-86
2022/05/16 10:50:04;;;;;;;14.50;2.13;;;;;;;25.71;25.06;95237.06;5038374;28;20038;-86
2022/05/16 10:52:35;;;;;;;6.82;2.08;;;;;;;25.75;23.80;95242.53;4996231;28;20050;-86
2022/05/16 10:55:00;;;;;;;9.85;2.20;;;;;;;25.73;25.27;95245.50;5011390;28;20572;-86
2022/05/16 10:58:03;;;;;;;6.80;2.00;;;;;;;25.77;24.80;95241.09;4997271;28;20109;-86
2022/05/16 11:00:58;;;;;;;5.78;2.50;;;;;;;25.80;25.28;95229.03;5050286;28;20080;-86
2022/05/16 11:03:38;;;;;;;9.77;2.13;;;;;;;25.74;23.14;95231.09;4999954;28;20050;-86
2022/05/16 11:06:07;;;;;;;5.00;1.80;;;;;;;25.66;24.15;95229.97;5047433;28;20057;-87
2022/05/16 11:08:57;;;;;;;5.72;1.95;;;;;;;25.69;24.50;95229.34;5031281;28;20038;-86
2022/05/16 11:11:51;;;;;;;3.85;1.80;;;;;;;25.70;25.88;95225.59;5111600;22;20145;-85
2022/05/16 11:14:21;;;;;;;7.72;2.38;;;;;;;25.72;26.01;95212.78;5026053;28;20100;-85
2022/05/16 11:16:50;;;;;;;5.30;2.15;;;;;;;25.68;24.78;95217.16;5011059;28;20056;-85
2022/05/16 11:19:22;;;;;;;3.10;2.10;;;;;;;25.50;24.59;95207.59;5019220;28;20151;-86
2022/05/16 11:22:05;;;;;;;5.68;2.00;;;;;;;25.58;25.41;95209.47;5035066;28;20056;-85
2022/05/16 11:24:59;;;;;;;4.25;2.03;;;;;;;25.62;25.99;95213.06;5047840;28;20153;-85
2022/05/16 11:27:56;;;;;;;9.57;1.90;;;;;;;25.65;24.92;95198.31;5032571;28;20048;-85
2022/05/16 11:30:25;;;;;;;5.30;2.70;;;;;;;25.68;25.61;95205.72;5027850;28;20409;-87
2022/05/16 11:33:05;;;;;;;5.63;2.00;;;;;;;25.65;24.71;95196.44;5025749;28;20064;-86
2022/05/16 11:36:17;;;;;;;5.28;2.05;;;;;;;25.58;24.06;95190.84;5047116;28;20040;-85
2022/05/16 11:39:03;;;;;;;3.60;1.70;;;;;;;25.51;24.65;95203.84;4991761;28;20085;-87
2022/05/16 11:41:44;;;;;;;7.10;1.92;;;;;;;25.44;25.45;95195.56;4998633;28;20496;-86
2022/05/16 11:44:15;;;;;;;1.73;1.55;;;;;;;25.43;24.70;95205.44;4997790;28;20026;-86
2022/05/16 11:46:51;;;;;;;20.67;1.92;;;;;;;25.46;25.39;95198.69;4989542;28;20042;-85
2022/05/16 11:49:41;;;;;;;5.28;1.90;;;;;;;25.50;24.06;95191.63;4994707;28;20113;-87
2022/05/16 11:52:34;;;;;;;4.55;1.92;;;;;;;25.48;24.37;95191.16;5010405;28;20046;-86
2022/05/16 12:00:31;;;;;;;18.27;2.72;;;;;;;25.54;24.87;95181.91;5010096;28;20096;-86
2022/05/16 12:00:51;;;;;;;5.72;3.17;;;;;;;25.64;24.83;95170.91;4987660;28;20041;-86
2022/05/16 12:03:19;;;;;;;4.78;2.65;;;;;;;25.67;23.67;95172.94;5012224;28;20053;-87
2022/05/16 12:05:50;;;;;;;10.23;2.10;;;;;;;25.73;23.55;95165.59;5003481;28;20025;-87
2022/05/16 12:08:31;;;;;;;8.83;2.63;;;;;;;25.76;23.67;95162.28;5020716;28;20037;-86
2022/05/16 12:10:57;;;;;;;4.45;1.55;;;;;;;25.83;23.76;95153.78;5005833;28;20033;-86
2022/05/16 12:13:28;;;;;;;4.85;1.50;;;;;;;25.83;24.62;95148.47;5036168;28;20056;-85
2022/05/16 12:16:12;;;;;;;4.13;2.35;;;;;;;25.85;23.19;95152.38;5036849;28;20095;-86